Time;durP1;ratioP1;P1;durP2;ratioP2;P2;SDS_P1;SDS_P2;PMS_P1;PMS_P2;Temp;Humidity;BMP_temperature;BMP_pressure;BME280_temperature;BME280_humidity;BME280_pressure;Samples;Min_cycle;Max_cycle;Signal;HPM_P1;HPM_P2
2023/08/08 00:00:10;;;;;;;;;;;;;;;21.58;55.54;100499.19;5057636;28;4186;-74
2023/08/08 00:02:39;;;;;;;;;;;;;;;21.58;55.93;100490.53;5060641;28;4035;-74
2023/08/08 00:05:05;;;;;;;;;;;;;;;21.60;55.80;100486.97;5059611;28;3996;-74
2023/08/08 00:07:32;;;;;;;;;;;;;;;21.57;55.70;100486.16;5057675;28;4145;-74
2023/08/08 00:09:58;;;;;;;;;;;;;;;21.59;55.99;100479.75;5058549;28;4118;-74
2023/08/08 00:12:24;;;;;;;;;;;;;;;21.58;55.62;100481.13;5059883;28;4183;-74
2023/08/08 00:14:51;;;;;;;;;;;;;;;21.57;55.87;100483.28;5055940;28;4191;-75
2023/08/08 00:17:17;;;;;;;;;;;;;;;21.56;55.74;100481.81;5059452;28;4134;-75
2023/08/08 00:19:44;;;;;;;;;;;;;;;21.57;55.78;100491.19;5058356;28;4559;-74
2023/08/08 00:22:10;;;;;;;;;;;;;;;21.58;55.82;100487.66;5057740;28;4172;-74
2023/08/08 00:24:36;;;;;;;;;;;;;;;21.56;55.85;100484.69;5058394;28;4009;-76
2023/08/08 00:27:03;;;;;;;;;;;;;;;21.56;55.71;100496.22;5057276;28;4149;-74
2023/08/08 00:29:29;;;;;;;;;;;;;;;21.54;56.11;100494.00;5057619;28;4023;-74
2023/08/08 00:31:57;;;;;;;;;;;;;;;21.54;55.93;100494.00;5056255;28;4325;-74
2023/08/08 00:34:24;;;;;;;;;;;;;;;21.56;55.57;100489.72;5040189;28;4241;-74
2023/08/08 00:36:50;;;;;;;;;;;;;;;21.53;55.93;100497.53;5056374;28;4003;-75
2023/08/08 00:39:17;;;;;;;;;;;;;;;21.54;55.83;100504.78;5057909;28;4210;-73
2023/08/08 00:41:43;;;;;;;;;;;;;;;21.53;55.93;100497.53;5056538;28;4154;-74
2023/08/08 00:44:09;;;;;;;;;;;;;;;21.54;55.69;100499.75;5056338;28;4391;-74
2023/08/08 00:46:36;;;;;;;;;;;;;;;21.53;55.91;100504.06;5058389;28;4240;-74
2023/08/08 00:49:02;;;;;;;;;;;;;;;21.53;55.89;100506.94;5057725;28;5111;-74
2023/08/08 00:51:30;;;;;;;;;;;;;;;21.53;55.98;100504.06;5032099;28;4077;-74
2023/08/08 00:53:56;;;;;;;;;;;;;;;21.51;55.86;100506.88;5056929;28;4130;-74
2023/08/08 00:56:22;;;;;;;;;;;;;;;21.52;56.00;100507.59;5057128;28;4129;-74
2023/08/08 00:58:50;;;;;;;;;;;;;;;21.53;55.98;100506.19;5055683;28;4059;-74
2023/08/08 01:01:17;;;;;;;;;;;;;;;21.52;55.80;100504.72;5057214;28;4019;-74
2023/08/08 01:03:43;;;;;;;;;;;;;;;21.52;55.73;100507.59;5053212;28;4437;-74
2023/08/08 01:06:13;;;;;;;;;;;;;;;21.50;56.10;100499.59;5047540;28;4176;-74
2023/08/08 01:08:42;;;;;;;;;;;;;;;21.51;56.05;100506.13;5031919;28;4104;-73
2023/08/08 01:11:09;;;;;;;;;;;;;;;21.50;56.05;100501.75;5056609;28;4757;-74
2023/08/08 01:13:35;;;;;;;;;;;;;;;21.50;55.95;100501.75;5030663;28;4054;-85
2023/08/08 01:16:03;;;;;;;;;;;;;;;21.50;55.85;100493.13;5057261;28;4242;-86
2023/08/08 01:18:29;;;;;;;;;;;;;;;21.50;56.03;100496.00;5041099;28;4117;-68
2023/08/08 01:20:56;;;;;;;;;;;;;;;21.50;55.91;100487.34;5017245;28;4100;-68
2023/08/08 01:23:42;;;;;;;;;;;;;;;21.50;56.07;100493.13;5039585;28;4139;-69
2023/08/08 01:26:09;;;;;;;;;;;;;;;21.50;55.73;100493.13;5055754;28;3989;-67
2023/08/08 01:28:35;;;;;;;;;;;;;;;21.50;55.96;100488.09;5050987;28;4015;-69
2023/08/08 01:31:02;;;;;;;;;;;;;;;21.50;55.74;100484.47;5033127;28;3928;-68
2023/08/08 01:33:29;;;;;;;;;;;;;;;21.49;55.83;100485.88;5054448;28;4012;-69
2023/08/08 01:35:58;;;;;;;;;;;;;;;21.48;55.93;100481.53;5040091;28;4101;-68
2023/08/08 01:38:36;;;;;;;;;;;;;;;21.48;55.94;100478.63;5055801;28;4182;-69
2023/08/08 01:41:02;;;;;;;;;;;;;;;21.48;56.01;100475.75;5037786;28;4161;-68
2023/08/08 01:43:29;;;;;;;;;;;;;;;21.49;56.15;100488.78;5055887;28;4213;-69
2023/08/08 01:45:57;;;;;;;;;;;;;;;21.48;56.04;100478.63;5055661;28;4081;-68
2023/08/08 01:48:24;;;;;;;;;;;;;;;21.48;55.93;100479.38;5030666;28;4057;-68
2023/08/08 01:50:50;;;;;;;;;;;;;;;21.48;55.88;100484.41;5052796;28;4123;-69
2023/08/08 01:53:17;;;;;;;;;;;;;;;21.48;55.78;100490.16;5057607;28;4148;-68
2023/08/08 01:55:43;;;;;;;;;;;;;;;21.48;55.96;100481.53;5054824;28;4004;-69
2023/08/08 01:58:10;;;;;;;;;;;;;;;21.48;55.83;100472.88;5056066;28;4008;-68
2023/08/08 02:00:37;;;;;;;;;;;;;;;21.48;56.01;100467.13;5038861;28;3986;-68
2023/08/08 02:03:03;;;;;;;;;;;;;;;21.48;55.92;100467.13;5038084;28;4072;-69
2023/08/08 02:05:30;;;;;;;;;;;;;;;21.47;56.07;100462.78;5056164;28;4000;-68
2023/08/08 02:07:57;;;;;;;;;;;;;;;21.46;56.10;100469.91;5054307;28;4114;-69
2023/08/08 02:10:23;;;;;;;;;;;;;;;21.46;55.71;100455.53;5037940;28;4459;-69
2023/08/08 02:12:50;;;;;;;;;;;;;;;21.47;56.05;100471.41;5056349;28;4034;-69
2023/08/08 02:15:16;;;;;;;;;;;;;;;21.46;55.86;100464.91;5054253;28;4098;-68
2023/08/08 02:17:43;;;;;;;;;;;;;;;21.47;55.82;100465.66;5054149;28;4029;-68
2023/08/08 02:20:11;;;;;;;;;;;;;;;21.47;55.83;100471.41;5056285;28;4197;-69
2023/08/08 02:22:38;;;;;;;;;;;;;;;21.46;56.07;100469.91;5052513;28;4158;-69
2023/08/08 02:25:04;;;;;;;;;;;;;;;21.46;55.86;100467.03;5039228;28;5371;-68
2023/08/08 02:27:31;;;;;;;;;;;;;;;21.45;55.98;100454.78;5037854;28;4013;-68
2023/08/08 02:29:57;;;;;;;;;;;;;;;21.45;56.07;100451.91;5037334;28;3954;-68
2023/08/08 02:32:24;;;;;;;;;;;;;;;21.45;55.86;100454.06;5054304;28;4322;-69
2023/08/08 02:34:53;;;;;;;;;;;;;;;21.45;55.81;100451.16;5054339;28;4071;-69
2023/08/08 02:37:19;;;;;;;;;;;;;;;21.45;55.81;100451.16;5054218;28;3971;-68
2023/08/08 02:39:46;;;;;;;;;;;;;;;21.46;55.76;100459.16;5053529;28;4298;-68
2023/08/08 02:42:14;;;;;;;;;;;;;;;21.45;55.98;100459.81;5035882;28;4093;-68
2023/08/08 02:44:41;;;;;;;;;;;;;;;21.49;55.79;100457.09;5056789;28;4125;-69
2023/08/08 02:47:09;;;;;;;;;;;;;;;21.49;55.80;100451.31;5037151;28;3959;-69
2023/08/08 02:49:35;;;;;;;;;;;;;;;21.49;56.15;100445.56;5041536;28;4081;-68
2023/08/08 02:52:01;;;;;;;;;;;;;;;21.46;56.38;100458.41;5059091;28;5370;-68
2023/08/08 02:54:31;;;;;;;;;;;;;;;21.46;56.39;100452.63;5047864;28;4510;-68
2023/08/08 02:56:57;;;;;;;;;;;;;;;21.44;56.33;100455.44;5056817;28;4372;-68
2023/08/08 02:59:24;;;;;;;;;;;;;;;21.45;56.18;100445.41;5040809;28;3976;-68
2023/08/08 03:01:52;;;;;;;;;;;;;;;21.44;56.05;100456.19;5039816;28;4160;-68
2023/08/08 03:04:18;;;;;;;;;;;;;;;21.44;55.92;100450.44;5058327;28;3945;-68
2023/08/08 03:06:45;;;;;;;;;;;;;;;21.45;56.28;100456.94;5033295;28;4217;-69
2023/08/08 03:09:11;;;;;;;;;;;;;;;21.44;56.06;100452.56;5058949;28;4414;-68
2023/08/08 03:11:41;;;;;;;;;;;;;;;21.42;56.36;100453.25;5046895;28;4167;-68
2023/08/08 03:14:11;;;;;;;;;;;;;;;21.42;56.25;100446.75;5031589;28;4029;-68
2023/08/08 03:16:37;;;;;;;;;;;;;;;21.40;56.29;100455.28;5042800;28;4331;-69
2023/08/08 03:19:07;;;;;;;;;;;;;;;21.42;56.17;100452.50;5030662;28;4133;-68
2023/08/08 03:21:35;;;;;;;;;;;;;;;21.43;55.96;100451.09;5054237;28;4233;-68
2023/08/08 03:24:03;;;;;;;;;;;;;;;21.40;56.11;100450.28;5045309;28;4118;-69
2023/08/08 03:26:29;;;;;;;;;;;;;;;21.41;56.28;100451.75;5059407;28;4371;-69
2023/08/08 03:28:55;;;;;;;;;;;;;;;21.41;56.07;100445.25;5057889;28;4014;-68
2023/08/08 03:31:29;;;;;;;;;;;;;;;21.41;56.29;100451.75;5059293;28;4213;-68
2023/08/08 03:33:56;;;;;;;;;;;;;;;21.41;56.02;100451.75;5056431;28;4323;-68
2023/08/08 03:36:23;;;;;;;;;;;;;;;21.41;56.37;100451.03;5047651;28;4151;-68
2023/08/08 03:38:50;;;;;;;;;;;;;;;21.40;56.16;100450.28;5039629;28;4176;-68
2023/08/08 03:41:16;;;;;;;;;;;;;;;21.41;56.35;100446.00;5058594;28;3987;-68
2023/08/08 03:43:43;;;;;;;;;;;;;;;21.41;56.12;100442.38;5054176;28;4070;-68
2023/08/08 03:46:11;;;;;;;;;;;;;;;21.41;56.38;100445.25;5058016;28;4461;-68
2023/08/08 03:48:38;;;;;;;;;;;;;;;21.41;56.48;100451.03;5055974;28;4150;-68
2023/08/08 03:51:04;;;;;;;;;;;;;;;21.42;55.97;100449.63;5034251;28;4313;-68
2023/08/08 03:53:30;;;;;;;;;;;;;;;21.38;56.14;100452.34;5041134;28;4178;-68
2023/08/08 03:55:57;;;;;;;;;;;;;;;21.40;56.23;100455.28;5038819;28;4199;-68
2023/08/08 03:58:24;;;;;;;;;;;;;;;21.40;56.45;100463.94;5041362;28;4377;-68
2023/08/08 04:00:51;;;;;;;;;;;;;;;21.40;56.28;100456.06;5056797;28;4021;-67
2023/08/08 04:03:17;;;;;;;;;;;;;;;21.39;56.06;100468.94;5032738;28;4173;-68
2023/08/08 04:05:46;;;;;;;;;;;;;;;21.40;56.21;100461.06;5031043;28;4174;-67
2023/08/08 04:08:14;;;;;;;;;;;;;;;21.37;56.04;100456.59;5037737;28;4056;-68
2023/08/08 04:10:40;;;;;;;;;;;;;;;21.38;56.18;100463.84;5038955;28;4283;-68
2023/08/08 04:13:08;;;;;;;;;;;;;;;21.38;56.37;100443.69;5056615;28;4167;-68
2023/08/08 04:15:35;;;;;;;;;;;;;;;21.38;56.49;100452.34;5040379;28;4004;-68
2023/08/08 04:18:01;;;;;;;;;;;;;;;21.38;56.30;100444.44;5054805;28;4035;-69
2023/08/08 04:20:27;;;;;;;;;;;;;;;21.36;56.20;100435.72;5056709;28;3934;-68
2023/08/08 04:22:54;;;;;;;;;;;;;;;21.38;56.20;100455.22;5057992;28;4161;-68
2023/08/08 04:25:21;;;;;;;;;;;;;;;21.38;56.16;100455.22;5056368;28;4135;-68
2023/08/08 04:27:47;;;;;;;;;;;;;;;21.37;56.43;100456.59;5054418;28;4483;-68
2023/08/08 04:30:13;;;;;;;;;;;;;;;21.38;56.31;100460.97;5056883;28;4122;-68
2023/08/08 04:32:40;;;;;;;;;;;;;;;21.36;56.33;100455.16;5046059;28;4909;-68
2023/08/08 04:35:06;;;;;;;;;;;;;;;21.37;56.11;100453.72;5057661;28;3974;-68
2023/08/08 04:37:33;;;;;;;;;;;;;;;21.36;56.53;100455.16;5057117;28;4388;-68
2023/08/08 04:39:59;;;;;;;;;;;;;;;21.36;56.45;100458.03;5055756;28;4105;-68
2023/08/08 04:42:26;;;;;;;;;;;;;;;21.36;56.47;100450.13;5056698;28;4073;-68
2023/08/08 04:44:52;;;;;;;;;;;;;;;21.36;56.10;100452.25;5056428;28;4177;-68
2023/08/08 04:47:18;;;;;;;;;;;;;;;21.34;56.44;100452.91;5056475;28;4006;-68
2023/08/08 04:49:45;;;;;;;;;;;;;;;21.34;56.36;100459.41;5053885;28;4167;-69
2023/08/08 04:52:11;;;;;;;;;;;;;;;21.36;56.24;100455.88;5058869;28;4078;-68
2023/08/08 04:54:38;;;;;;;;;;;;;;;21.36;56.18;100450.13;5056116;28;4077;-68
2023/08/08 04:57:04;;;;;;;;;;;;;;;21.33;56.50;100446.44;5057672;28;5008;-68
2023/08/08 04:59:30;;;;;;;;;;;;;;;21.33;56.34;100446.44;5055467;28;4067;-68
2023/08/08 05:01:57;;;;;;;;;;;;;;;21.34;56.54;100453.66;5053831;28;4175;-68
2023/08/08 05:04:24;;;;;;;;;;;;;;;21.36;56.32;100446.50;5055738;28;3965;-68
2023/08/08 05:06:50;;;;;;;;;;;;;;;21.36;56.54;100452.25;5054325;28;4351;-68
2023/08/08 05:09:16;;;;;;;;;;;;;;;21.34;56.15;100442.13;5056559;28;4108;-69
2023/08/08 05:11:43;;;;;;;;;;;;;;;21.33;56.27;100440.66;5054545;28;4320;-69
2023/08/08 05:14:09;;;;;;;;;;;;;;;21.34;56.57;100444.28;5056771;28;4299;-68
2023/08/08 05:16:36;;;;;;;;;;;;;;;21.33;56.32;100439.94;5056952;28;3983;-69
2023/08/08 05:19:02;;;;;;;;;;;;;;;21.32;56.39;100433.41;5058533;28;4940;-68
2023/08/08 05:21:28;;;;;;;;;;;;;;;21.32;56.62;100433.41;5054395;28;4133;-68
2023/08/08 05:23:55;;;;;;;;;;;;;;;21.33;56.36;100434.19;5057279;28;4142;-68
2023/08/08 05:26:21;;;;;;;;;;;;;;;21.32;56.18;100439.19;5054168;28;4010;-68
2023/08/08 05:28:48;;;;;;;;;;;;;;;21.32;56.52;100442.06;5055529;28;4060;-68
2023/08/08 05:31:14;;;;;;;;;;;;;;;21.33;56.52;100445.69;5056764;28;4106;-68
2023/08/08 05:33:41;;;;;;;;;;;;;;;21.32;56.44;100444.94;5055600;28;4016;-68
2023/08/08 05:36:08;;;;;;;;;;;;;;;21.33;56.39;100446.44;5056122;28;3966;-68
2023/08/08 05:38:34;;;;;;;;;;;;;;;21.31;56.36;100437.72;5055712;28;4100;-69
2023/08/08 05:41:00;;;;;;;;;;;;;;;21.32;56.38;100439.19;5056088;28;4262;-68
2023/08/08 05:43:27;;;;;;;;;;;;;;;21.32;56.34;100438.44;5055420;28;3989;-68
2023/08/08 05:45:56;;;;;;;;;;;;;;;21.32;56.40;100447.81;5054926;28;4327;-69
2023/08/08 05:48:22;;;;;;;;;;;;;;;21.33;56.29;100445.69;5057294;28;4095;-68
2023/08/08 05:50:48;;;;;;;;;;;;;;;21.33;56.36;100439.94;5056126;28;3996;-68
2023/08/08 05:53:15;;;;;;;;;;;;;;;21.31;56.35;100449.22;5055781;28;4194;-68
2023/08/08 05:55:42;;;;;;;;;;;;;;;21.31;56.38;100449.22;5058440;28;3999;-68
2023/08/08 05:58:09;;;;;;;;;;;;;;;21.31;56.37;100460.75;5056255;28;4147;-68
2023/08/08 06:00:35;;;;;;;;;;;;;;;21.31;56.34;100452.13;5053576;28;4237;-68
2023/08/08 06:03:01;;;;;;;;;;;;;;;21.30;56.39;100453.53;5055331;28;4537;-68
2023/08/08 06:05:28;;;;;;;;;;;;;;;21.31;56.63;100455.00;5053770;28;4171;-68
2023/08/08 06:07:55;;;;;;;;;;;;;;;21.30;56.33;100459.28;5055538;28;4856;-68
2023/08/08 06:10:21;;;;;;;;;;;;;;;21.30;56.59;100452.75;5055653;28;4228;-68
2023/08/08 06:12:48;;;;;;;;;;;;;;;21.30;56.41;100447.75;5056436;28;3962;-68
2023/08/08 06:15:14;;;;;;;;;;;;;;;21.31;56.53;100449.22;5053159;28;4094;-68
2023/08/08 06:17:41;;;;;;;;;;;;;;;21.31;56.45;100449.22;5054477;28;4024;-69
2023/08/08 06:20:09;;;;;;;;;;;;;;;21.31;56.32;100455.00;5055801;28;4165;-68
2023/08/08 06:22:36;;;;;;;;;;;;;;;21.31;56.58;100446.34;5051744;28;4122;-68
2023/08/08 06:25:03;;;;;;;;;;;;;;;21.31;56.48;100448.50;5056092;28;4081;-68
2023/08/08 06:27:30;;;;;;;;;;;;;;;21.31;56.66;100449.22;5053395;28;3943;-68
2023/08/08 06:29:56;;;;;;;;;;;;;;;21.30;56.19;100459.28;5053328;28;4146;-68
2023/08/08 06:32:23;;;;;;;;;;;;;;;21.31;56.41;100455.00;5052739;28;3958;-68
2023/08/08 06:34:50;;;;;;;;;;;;;;;21.30;56.46;100459.28;5054134;28;4024;-68
2023/08/08 06:37:16;;;;;;;;;;;;;;;21.31;56.45;100454.25;5053761;28;4173;-68
2023/08/08 06:39:43;;;;;;;;;;;;;;;21.30;56.72;100450.66;5054724;28;5293;-68
2023/08/08 06:42:09;;;;;;;;;;;;;;;21.30;56.82;100447.75;5056073;28;4165;-68
2023/08/08 06:44:46;;;;;;;;;;;;;;;21.31;56.68;100454.25;5055744;28;4345;-69
2023/08/08 06:47:13;;;;;;;;;;;;;;;21.30;56.61;100447.75;5056329;28;3956;-68
2023/08/08 06:49:39;;;;;;;;;;;;;;;21.31;56.39;100455.00;5055978;28;4151;-68
2023/08/08 06:52:05;;;;;;;;;;;;;;;21.31;56.35;100462.91;5055516;28;4224;-68
2023/08/08 06:54:32;;;;;;;;;;;;;;;21.30;56.43;100467.94;5057161;28;4368;-68
2023/08/08 06:56:59;;;;;;;;;;;;;;;21.31;56.58;100460.03;5055027;28;4310;-69
2023/08/08 06:59:26;;;;;;;;;;;;;;;21.32;56.59;100456.44;5054974;28;4168;-68
2023/08/08 07:01:53;;;;;;;;;;;;;;;21.30;56.46;100470.81;5053783;28;4358;-68
2023/08/08 07:04:20;;;;;;;;;;;;;;;21.30;56.54;100465.03;5056939;28;4008;-68
2023/08/08 07:06:46;;;;;;;;;;;;;;;21.31;56.50;100457.13;5057436;28;4190;-68
2023/08/08 07:09:14;;;;;;;;;;;;;;;21.31;56.49;100466.50;5058075;28;4160;-68
2023/08/08 07:11:40;;;;;;;;;;;;;;;21.31;56.79;100460.75;5057346;28;4279;-69
2023/08/08 07:14:07;;;;;;;;;;;;;;;21.30;56.70;100462.16;5056971;28;4233;-68
2023/08/08 07:16:33;;;;;;;;;;;;;;;21.31;56.87;100466.50;5056006;28;4085;-68
2023/08/08 07:19:00;;;;;;;;;;;;;;;21.30;56.39;100470.03;5058284;28;4107;-74
2023/08/08 07:21:26;;;;;;;;;;;;;;;21.31;56.40;100460.75;5057765;28;4372;-70
2023/08/08 07:23:53;;;;;;;;;;;;;;;21.30;56.56;100467.94;5055187;28;4145;-69
2023/08/08 07:26:19;;;;;;;;;;;;;;;21.30;56.63;100453.53;5054367;28;3956;-70
2023/08/08 07:28:45;;;;;;;;;;;;;;;21.30;56.60;100459.28;5055379;28;4057;-70
2023/08/08 07:31:12;;;;;;;;;;;;;;;21.31;56.49;100449.22;5056407;28;3977;-70
2023/08/08 07:33:38;;;;;;;;;;;;;;;21.32;56.61;100462.22;5057110;28;4195;-70
2023/08/08 07:36:05;;;;;;;;;;;;;;;21.32;56.62;100461.47;5057319;28;4015;-66
2023/08/08 07:38:33;;;;;;;;;;;;;;;21.24;57.54;100461.19;5059459;28;3975;-66
2023/08/08 07:40:59;;;;;;;;;;;;;;;21.25;56.86;100460.53;5062023;28;4690;-66
2023/08/08 07:43:26;;;;;;;;;;;;;;;21.28;56.28;100456.31;5061058;28;4291;-65
2023/08/08 07:45:53;;;;;;;;;;;;;;;21.39;56.04;100459.56;5060621;28;4323;-65
2023/08/08 07:48:19;;;;;;;;;;;;;;;21.36;55.82;100455.88;5061138;28;4084;-66
2023/08/08 07:50:46;;;;;;;;;;;;;;;21.36;55.35;100461.63;5059122;28;4352;-66
2023/08/08 07:53:13;;;;;;;;;;;;;;;21.38;54.98;100449.47;5061428;28;4144;-66
2023/08/08 07:55:39;;;;;;;;;;;;;;;21.31;55.39;100449.22;5059517;28;4035;-66
2023/08/08 07:58:05;;;;;;;;;;;;;;;21.28;55.09;100444.81;5056538;28;4522;-68
2023/08/08 08:00:32;;;;;;;;;;;;;;;21.33;55.36;100445.69;5059463;28;4074;-68
2023/08/08 08:02:58;;;;;;;;;;;;;;;21.25;55.31;100443.25;5059607;28;4142;-75
2023/08/08 08:05:25;;;;;;;;;;;;;;;21.29;55.37;100446.28;5054822;28;4224;-75
2023/08/08 08:07:51;;;;;;;;;;;;;;;21.34;55.44;100441.41;5057063;28;4484;-74
2023/08/08 08:10:18;;;;;;;;;;;;;;;21.38;55.19;100449.47;5056596;28;4033;-77
2023/08/08 08:12:44;;;;;;;;;;;;;;;21.80;56.20;100437.94;5060201;28;3980;-73
2023/08/08 08:15:11;;;;;;;;;;;;;;;21.89;56.02;100454.13;5060251;28;4191;-73
2023/08/08 08:17:37;;;;;;;;;;;;;;;21.94;55.54;100450.72;5059473;28;4199;-74
2023/08/08 08:20:05;;;;;;;;;;;;;;;21.70;55.13;100447.72;5055107;28;4210;-72
2023/08/08 08:22:32;;;;;;;;;;;;;;;21.58;55.36;100450.19;5061924;28;4151;-71
2023/08/08 08:24:58;;;;;;;;;;;;;;;21.56;55.21;100429.97;5058529;28;4471;-72
2023/08/08 08:27:24;;;;;;;;;;;;;;;21.57;55.25;100445.09;5056466;28;4217;-73
2023/08/08 08:29:51;;;;;;;;;;;;;;;21.55;55.24;100448.63;5055360;28;4150;-72
2023/08/08 08:32:17;;;;;;;;;;;;;;;21.56;55.35;100447.25;5056832;28;4095;-72
2023/08/08 08:34:44;;;;;;;;;;;;;;;21.56;55.20;100453.00;5058673;28;4159;-72
2023/08/08 08:37:10;;;;;;;;;;;;;;;21.58;55.03;100441.56;5059669;28;4138;-72
2023/08/08 08:39:37;;;;;;;;;;;;;;;21.60;54.95;100446.63;5057399;28;4128;-73
2023/08/08 08:42:04;;;;;;;;;;;;;;;21.56;54.97;100450.13;5059556;28;4312;-72
2023/08/08 08:44:31;;;;;;;;;;;;;;;21.58;55.17;100450.19;5030911;28;4319;-71
2023/08/08 08:47:01;;;;;;;;;;;;;;;21.61;54.96;100439.47;5060391;28;4117;-72
2023/08/08 08:49:29;;;;;;;;;;;;;;;21.61;54.87;100437.34;5059434;28;4171;-72
2023/08/08 08:51:56;;;;;;;;;;;;;;;21.61;54.74;100440.22;5054835;28;4470;-72
2023/08/08 08:54:23;;;;;;;;;;;;;;;21.62;54.74;100443.81;5057674;28;4184;-72
2023/08/08 08:56:49;;;;;;;;;;;;;;;21.63;55.07;100440.28;5057757;28;4119;-72
2023/08/08 08:59:15;;;;;;;;;;;;;;;21.83;55.53;100439.50;5056564;28;4105;-75
2023/08/08 09:01:42;;;;;;;;;;;;;;;21.74;55.36;100430.59;5057225;28;4098;-66
2023/08/08 09:04:08;;;;;;;;;;;;;;;21.71;55.24;100437.66;5056124;28;3946;-66
2023/08/08 09:06:35;;;;;;;;;;;;;;;21.78;55.54;100440.75;5055321;28;4045;-66
2023/08/08 09:09:03;;;;;;;;;;;;;;;21.72;55.66;100427.63;5030912;28;4180;-72
2023/08/08 09:11:42;;;;;;;;;;;;;;;21.71;55.74;100423.25;5052642;28;4169;-67
2023/08/08 09:14:16;;;;;;;;;;;;;;;21.74;55.66;100429.84;5057268;28;4161;-66
2023/08/08 09:16:43;;;;;;;;;;;;;;;21.69;55.76;100428.97;5057130;28;4139;-66
2023/08/08 09:19:09;;;;;;;;;;;;;;;21.70;55.57;100430.44;5060676;28;3968;-66
2023/08/08 09:21:35;;;;;;;;;;;;;;;21.69;55.64;100428.97;5060592;28;3990;-66
2023/08/08 09:24:02;;;;;;;;;;;;;;;21.69;56.00;100428.97;5061972;28;4123;-66
2023/08/08 09:26:28;;;;;;;;;;;;;;;21.69;55.87;100411.69;5058844;28;4158;-66
2023/08/08 09:28:55;;;;;;;;;;;;;;;21.69;56.08;100411.69;5059493;28;3985;-66
2023/08/08 09:31:21;;;;;;;;;;;;;;;21.69;55.92;100397.28;5032030;28;4076;-66
2023/08/08 09:33:48;;;;;;;;;;;;;;;21.67;56.17;100400.09;5029137;28;4350;-66
2023/08/08 09:36:15;;;;;;;;;;;;;;;21.67;56.06;100405.09;5059176;28;4306;-66
2023/08/08 09:38:42;;;;;;;;;;;;;;;21.66;56.27;100401.47;5058591;28;4340;-66
2023/08/08 09:41:08;;;;;;;;;;;;;;;21.65;56.18;100411.53;5058969;28;4013;-66
2023/08/08 09:43:34;;;;;;;;;;;;;;;21.65;56.33;100411.53;5060366;28;4150;-66
2023/08/08 09:46:01;;;;;;;;;;;;;;;21.63;56.42;100408.59;5059680;28;4266;-66
2023/08/08 09:48:31;;;;;;;;;;;;;;;21.64;56.14;100410.06;5059804;28;4283;-66
2023/08/08 09:50:59;;;;;;;;;;;;;;;21.64;56.38;100415.81;5029671;28;4452;-66
2023/08/08 09:53:25;;;;;;;;;;;;;;;21.62;56.32;100404.22;5059376;28;4403;-66
2023/08/08 09:55:53;;;;;;;;;;;;;;;21.64;56.50;100410.06;5032833;28;4169;-66
2023/08/08 09:58:19;;;;;;;;;;;;;;;21.64;56.40;100397.81;5057084;28;3916;-66
2023/08/08 10:00:45;;;;;;;;;;;;;;;21.63;56.56;100402.09;5029238;28;4120;-66
2023/08/08 10:03:12;;;;;;;;;;;;;;;21.62;56.58;100406.38;5059399;28;4469;-66
2023/08/08 10:05:38;;;;;;;;;;;;;;;21.60;56.36;100395.53;5031173;28;4201;-66
2023/08/08 10:08:05;;;;;;;;;;;;;;;21.61;56.64;100394.13;5058651;28;4017;-66
2023/08/08 10:10:32;;;;;;;;;;;;;;;21.63;56.41;100388.41;5058470;28;4160;-66
2023/08/08 10:12:58;;;;;;;;;;;;;;;21.62;56.38;100389.81;5029358;28;4181;-65
2023/08/08 10:15:26;;;;;;;;;;;;;;;21.62;56.47;100384.06;5032906;28;4179;-66
2023/08/08 10:17:55;;;;;;;;;;;;;;;21.62;56.75;100374.69;5030822;28;4148;-66
2023/08/08 10:20:21;;;;;;;;;;;;;;;21.65;56.53;100387.75;5059471;28;4016;-66
2023/08/08 10:22:48;;;;;;;;;;;;;;;21.64;56.55;100381.25;5058808;28;4216;-66
2023/08/08 10:25:27;;;;;;;;;;;;;;;21.64;56.52;100381.25;5059816;28;4141;-66
2023/08/08 10:28:07;;;;;;;;;;;;;;;21.63;56.43;100397.06;5058289;28;4423;-67
2023/08/08 10:30:43;;;;;;;;;;;;;;;21.63;56.63;100408.59;5057880;28;4220;-66
2023/08/08 10:33:16;;;;;;;;;;;;;;;21.62;56.63;100394.84;5040266;28;5358;-66
2023/08/08 10:35:50;;;;;;;;;;;;;;;21.61;56.71;100414.28;5058331;28;4185;-65
2023/08/08 10:38:16;;;;;;;;;;;;;;;21.62;56.43;100406.38;5059080;28;4103;-66
2023/08/08 10:40:43;;;;;;;;;;;;;;;21.61;56.70;100411.41;5058141;28;4284;-66
2023/08/08 10:43:10;;;;;;;;;;;;;;;21.62;56.82;100412.88;5057562;28;4098;-66
2023/08/08 10:45:37;;;;;;;;;;;;;;;21.62;56.73;100395.56;5058522;28;4142;-65
2023/08/08 10:48:10;;;;;;;;;;;;;;;21.63;56.69;100394.19;5058221;28;4134;-66
2023/08/08 10:50:39;;;;;;;;;;;;;;;21.61;56.67;100382.59;5058681;28;4110;-65
2023/08/08 10:53:07;;;;;;;;;;;;;;;21.63;56.87;100385.53;5057644;28;3971;-66
2023/08/08 10:55:34;;;;;;;;;;;;;;;21.64;56.74;100381.25;5058627;28;4192;-66
2023/08/08 10:58:10;;;;;;;;;;;;;;;21.63;56.48;100376.91;5056857;28;4349;-66
2023/08/08 11:00:39;;;;;;;;;;;;;;;21.64;56.55;100375.47;5058727;28;3979;-66
2023/08/08 11:03:05;;;;;;;;;;;;;;;21.64;56.63;100378.34;5058784;28;4184;-66
2023/08/08 11:05:32;;;;;;;;;;;;;;;21.64;56.88;100381.25;5058446;28;4005;-66
2023/08/08 11:07:59;;;;;;;;;;;;;;;21.64;56.56;100410.06;5060545;28;3945;-66
2023/08/08 11:10:31;;;;;;;;;;;;;;;21.63;56.67;100419.38;5062863;28;4176;-66
2023/08/08 11:13:01;;;;;;;;;;;;;;;21.64;56.55;100421.59;5062735;28;4361;-66
2023/08/08 11:15:28;;;;;;;;;;;;;;;21.62;56.62;100409.97;5062534;28;4092;-65
2023/08/08 11:17:55;;;;;;;;;;;;;;;21.62;56.94;100418.63;5035374;28;4104;-66
2023/08/08 11:20:21;;;;;;;;;;;;;;;21.63;56.53;100420.13;5062645;28;4104;-66
2023/08/08 11:22:52;;;;;;;;;;;;;;;21.63;56.86;100419.38;5061202;28;4238;-66
2023/08/08 11:25:18;;;;;;;;;;;;;;;21.62;56.65;100418.63;5062359;28;4125;-66
2023/08/08 11:27:50;;;;;;;;;;;;;;;21.62;56.72;100404.22;5061463;28;4059;-66
2023/08/08 11:30:16;;;;;;;;;;;;;;;21.63;56.74;100408.59;5063221;28;4250;-66
2023/08/08 11:32:43;;;;;;;;;;;;;;;21.63;56.64;100399.94;5062017;28;4162;-66
2023/08/08 11:35:09;;;;;;;;;;;;;;;21.63;56.87;100397.06;5061798;28;4204;-66
2023/08/08 11:37:35;;;;;;;;;;;;;;;21.62;56.71;100395.56;5061981;28;4202;-66
2023/08/08 11:40:05;;;;;;;;;;;;;;;21.63;56.82;100390.56;5034004;28;4075;-67
2023/08/08 11:42:31;;;;;;;;;;;;;;;21.64;56.77;100387.00;5033059;28;4180;-66
2023/08/08 11:44:57;;;;;;;;;;;;;;;21.64;56.87;100387.00;5038636;28;4369;-66
2023/08/08 11:47:24;;;;;;;;;;;;;;;21.63;56.80;100379.78;5062284;28;4192;-67
2023/08/08 11:49:51;;;;;;;;;;;;;;;21.63;56.60;100371.13;5060934;28;4108;-66
2023/08/08 11:52:18;;;;;;;;;;;;;;;21.64;56.90;100375.47;5062367;28;4246;-66
2023/08/08 11:54:44;;;;;;;;;;;;;;;21.64;56.77;100371.88;5061401;28;4317;-66
2023/08/08 11:57:11;;;;;;;;;;;;;;;21.64;56.71;100372.59;5059816;28;3924;-66
2023/08/08 11:59:37;;;;;;;;;;;;;;;21.65;56.65;100370.47;5061797;28;4024;-66
2023/08/08 12:02:04;;;;;;;;;;;;;;;21.64;56.67;100369.72;5036109;28;4156;-66
2023/08/08 12:04:31;;;;;;;;;;;;;;;21.66;57.08;100361.16;5035690;28;4272;-66
2023/08/08 12:07:03;;;;;;;;;;;;;;;21.66;56.92;100358.25;5062962;28;4006;-66
2023/08/08 12:09:33;;;;;;;;;;;;;;;21.67;57.05;100356.88;5061171;28;4225;-66
2023/08/08 12:12:00;;;;;;;;;;;;;;;21.66;57.10;100352.50;5061185;28;4145;-66
2023/08/08 12:14:26;;;;;;;;;;;;;;;21.66;57.10;100355.38;5060174;28;4083;-66
2023/08/08 12:16:54;;;;;;;;;;;;;;;21.66;56.94;100355.38;5060023;28;4249;-66
2023/08/08 12:19:24;;;;;;;;;;;;;;;21.67;56.79;100354.00;5061245;28;4076;-66
2023/08/08 12:21:51;;;;;;;;;;;;;;;21.68;57.02;100361.22;5060977;28;4047;-66
2023/08/08 12:24:20;;;;;;;;;;;;;;;21.70;56.79;100364.16;5032177;28;4144;-66
2023/08/08 12:26:47;;;;;;;;;;;;;;;21.70;57.12;100355.53;5061605;28;4135;-66
2023/08/08 12:29:13;;;;;;;;;;;;;;;21.69;56.89;100353.31;5044003;28;4022;-67
2023/08/08 12:31:39;;;;;;;;;;;;;;;21.70;57.00;100366.31;5059595;28;4147;-66
2023/08/08 12:34:06;;;;;;;;;;;;;;;21.70;56.92;100367.03;5061178;28;4098;-66
2023/08/08 12:36:32;;;;;;;;;;;;;;;21.71;57.17;100365.63;5061566;28;4228;-66
2023/08/08 12:38:59;;;;;;;;;;;;;;;21.70;56.90;100355.53;5060115;28;4283;-66
2023/08/08 12:41:25;;;;;;;;;;;;;;;21.72;56.99;100366.38;5060855;28;4094;-66
2023/08/08 12:43:52;;;;;;;;;;;;;;;21.70;57.12;100378.56;5060705;28;4005;-66
2023/08/08 12:46:18;;;;;;;;;;;;;;;21.70;57.22;100372.06;5060293;28;4532;-66